Time;durP1;ratioP1;P1;durP2;ratioP2;P2;SDS_P1;SDS_P2;PMS_P1;PMS_P2;Temp;Humidity;BMP_temperature;BMP_pressure;BME280_temperature;BME280_humidity;BME280_pressure;Samples;Min_cycle;Max_cycle;Signal;HPM_P1;HPM_P2
2022/12/04 00:01:13;;;;;;;94.60;31.17;;;;;;;;;;5038253;28;20307;-44
2022/12/04 00:03:41;;;;;;;90.97;30.03;;;;;;;;;;5038041;28;20209;-43
2022/12/04 00:06:10;;;;;;;81.77;27.80;;;;;;;;;;5038212;28;20213;-44
2022/12/04 00:08:38;;;;;;;79.57;30.07;;;;;;;;;;5038095;28;20200;-45
2022/12/04 00:11:06;;;;;;;69.90;27.60;;;;;;;;;;5037960;28;20621;-43
2022/12/04 00:13:34;;;;;;;78.27;28.73;;;;;;;;;;5038139;28;20211;-43
2022/12/04 00:16:06;;;;;;;79.53;26.37;;;;;;;;;;5038088;28;20200;-43
2022/12/04 00:18:34;;;;;;;73.47;27.57;;;;;;;;;;5038791;28;20208;-44
2022/12/04 00:21:07;;;;;;;78.10;27.13;;;;;;;;;;5038032;28;20245;-44
2022/12/04 00:23:36;;;;;;;85.07;29.27;;;;;;;;;;5038057;28;20236;-44
2022/12/04 00:26:06;;;;;;;84.47;29.47;;;;;;;;;;5036729;28;20201;-43
2022/12/04 00:28:34;;;;;;;81.97;28.77;;;;;;;;;;5037873;28;20215;-43
2022/12/04 00:31:04;;;;;;;76.73;27.57;;;;;;;;;;5037415;28;20498;-43
2022/12/04 00:33:32;;;;;;;79.40;27.60;;;;;;;;;;5037914;28;20215;-43
2022/12/04 00:36:01;;;;;;;77.23;27.10;;;;;;;;;;5037661;28;20201;-43
2022/12/04 00:38:28;;;;;;;74.10;26.67;;;;;;;;;;5037094;28;20229;-43
2022/12/04 00:40:55;;;;;;;74.47;26.27;;;;;;;;;;5037592;28;20266;-44
2022/12/04 00:43:23;;;;;;;84.40;27.50;;;;;;;;;;5037208;28;20205;-43
2022/12/04 00:45:49;;;;;;;87.77;29.53;;;;;;;;;;5020293;28;20201;-44
2022/12/04 00:48:17;;;;;;;115.20;34.93;;;;;;;;;;5037508;28;20278;-43
2022/12/04 00:50:43;;;;;;;93.17;30.17;;;;;;;;;;5037249;28;20665;-44
2022/12/04 00:53:11;;;;;;;93.27;31.50;;;;;;;;;;5037437;28;20200;-44
2022/12/04 00:55:39;;;;;;;99.30;31.03;;;;;;;;;;5037237;28;20726;-44
2022/12/04 00:58:06;;;;;;;68.93;25.87;;;;;;;;;;5037097;28;20228;-43
2022/12/04 01:00:34;;;;;;;82.67;28.83;;;;;;;;;;5037140;28;20206;-43
2022/12/04 01:03:01;;;;;;;73.93;28.00;;;;;;;;;;5036908;28;20568;-43
2022/12/04 01:05:29;;;;;;;83.83;30.10;;;;;;;;;;5037144;28;20197;-43
2022/12/04 01:07:56;;;;;;;82.27;28.33;;;;;;;;;;5036698;28;20205;-43
2022/12/04 01:10:23;;;;;;;81.60;29.03;;;;;;;;;;5036905;28;20211;-44
2022/12/04 01:12:52;;;;;;;103.53;33.63;;;;;;;;;;5036962;28;20249;-44
2022/12/04 01:15:19;;;;;;;107.33;35.53;;;;;;;;;;5036592;28;20211;-44
2022/12/04 01:17:46;;;;;;;90.70;31.60;;;;;;;;;;5036914;28;20294;-44
2022/12/04 01:20:13;;;;;;;86.60;28.73;;;;;;;;;;5037035;28;20207;-43
2022/12/04 01:22:40;;;;;;;83.20;28.93;;;;;;;;;;5036489;28;20651;-43
2022/12/04 01:25:07;;;;;;;89.63;37.03;;;;;;;;;;5036573;28;20201;-43
2022/12/04 01:27:34;;;;;;;78.93;28.73;;;;;;;;;;5036629;28;20221;-44
2022/12/04 01:30:01;;;;;;;74.37;28.00;;;;;;;;;;5036656;28;20201;-43
2022/12/04 01:32:28;;;;;;;74.10;27.53;;;;;;;;;;5036624;28;20286;-43
2022/12/04 01:34:55;;;;;;;70.20;25.63;;;;;;;;;;5036728;28;20666;-44
2022/12/04 01:37:22;;;;;;;78.57;29.87;;;;;;;;;;5036245;28;20293;-43
2022/12/04 01:39:49;;;;;;;95.90;33.60;;;;;;;;;;5037165;28;20204;-44
2022/12/04 01:42:16;;;;;;;109.43;34.73;;;;;;;;;;5036847;28;20204;-43
2022/12/04 01:45:22;;;;;;;99.97;32.03;;;;;;;;;;5036409;28;20494;-43
2022/12/04 01:47:49;;;;;;;76.03;28.13;;;;;;;;;;5036070;28;20278;-43
2022/12/04 01:50:15;;;;;;;67.07;26.47;;;;;;;;;;5034255;28;20526;-43
2022/12/04 01:52:42;;;;;;;83.70;33.13;;;;;;;;;;5036009;28;20569;-43
2022/12/04 01:55:09;;;;;;;75.00;28.43;;;;;;;;;;5036229;28;20263;-43
2022/12/04 01:57:37;;;;;;;69.10;26.60;;;;;;;;;;5035216;28;20558;-43
2022/12/04 02:00:09;;;;;;;67.07;25.63;;;;;;;;;;5034932;28;20642;-44
2022/12/04 02:02:39;;;;;;;70.30;26.93;;;;;;;;;;5034590;28;20200;-47
2022/12/04 02:05:09;;;;;;;89.00;31.90;;;;;;;;;;5034964;28;20205;-43
2022/12/04 02:07:38;;;;;;;71.17;27.37;;;;;;;;;;5035791;28;20213;-43
2022/12/04 02:10:07;;;;;;;75.47;29.43;;;;;;;;;;5034817;28;20259;-43
2022/12/04 02:12:47;;;;;;;70.57;28.30;;;;;;;;;;5035060;28;20193;-44
2022/12/04 02:15:24;;;;;;;65.83;26.60;;;;;;;;;;5035212;28;20185;-43
2022/12/04 02:17:51;;;;;;;71.10;27.93;;;;;;;;;;5034606;28;20235;-43
2022/12/04 02:20:32;;;;;;;62.37;25.00;;;;;;;;;;5024102;28;20201;-44
2022/12/04 02:23:14;;;;;;;62.80;26.73;;;;;;;;;;5015866;28;20241;-43
2022/12/04 02:26:19;;;;;;;62.07;25.97;;;;;;;;;;5015622;28;20248;-43
2022/12/04 02:29:02;;;;;;;68.70;27.50;;;;;;;;;;5015528;28;20634;-43
2022/12/04 02:31:32;;;;;;;61.50;27.43;;;;;;;;;;5015911;28;20185;-45
2022/12/04 02:34:21;;;;;;;66.83;27.53;;;;;;;;;;5015626;28;20217;-47
2022/12/04 02:37:00;;;;;;;60.87;26.50;;;;;;;;;;5015414;28;20201;-43
2022/12/04 02:39:40;;;;;;;60.43;25.97;;;;;;;;;;5014897;28;20198;-45
2022/12/04 02:42:11;;;;;;;55.30;25.47;;;;;;;;;;5025598;28;20208;-44
2022/12/04 02:44:42;;;;;;;64.67;27.17;;;;;;;;;;5035512;28;20189;-43
2022/12/04 02:47:12;;;;;;;55.80;25.50;;;;;;;;;;5034913;28;20211;-44
2022/12/04 02:49:44;;;;;;;61.17;28.03;;;;;;;;;;5034574;28;20580;-44
2022/12/04 02:52:13;;;;;;;76.47;30.00;;;;;;;;;;5034532;28;20259;-43
2022/12/04 02:54:45;;;;;;;53.93;26.07;;;;;;;;;;5034998;28;20208;-43
2022/12/04 02:57:17;;;;;;;59.30;26.50;;;;;;;;;;5034798;28;20224;-44
2022/12/04 02:59:46;;;;;;;54.47;26.50;;;;;;;;;;5034023;28;20189;-43
2022/12/04 03:02:46;;;;;;;55.97;26.17;;;;;;;;;;5033851;28;20270;-43
2022/12/04 03:05:16;;;;;;;58.57;29.53;;;;;;;;;;5032741;28;20200;-44
2022/12/04 03:07:51;;;;;;;50.37;25.50;;;;;;;;;;5033862;28;20242;-44
2022/12/04 03:10:24;;;;;;;52.57;25.43;;;;;;;;;;5034197;28;20208;-44
2022/12/04 03:12:54;;;;;;;49.87;25.03;;;;;;;;;;5034252;28;20197;-45
2022/12/04 03:15:25;;;;;;;57.90;26.17;;;;;;;;;;5034030;28;20201;-44
2022/12/04 03:17:57;;;;;;;62.47;27.60;;;;;;;;;;5033751;28;20228;-43
2022/12/04 03:20:25;;;;;;;60.17;26.63;;;;;;;;;;5034668;28;20243;-44
2022/12/04 03:22:58;;;;;;;66.20;28.23;;;;;;;;;;5034885;28;20684;-45
2022/12/04 03:25:31;;;;;;;46.77;23.57;;;;;;;;;;5033945;28;20204;-43
2022/12/04 03:28:07;;;;;;;49.50;25.40;;;;;;;;;;5034659;28;20219;-44
2022/12/04 03:30:38;;;;;;;52.33;26.03;;;;;;;;;;5033750;28;20622;-44
2022/12/04 03:33:13;;;;;;;53.27;26.63;;;;;;;;;;5033997;28;20185;-44
2022/12/04 03:35:45;;;;;;;52.57;23.90;;;;;;;;;;5033827;28;20219;-43
2022/12/04 03:38:32;;;;;;;49.47;24.60;;;;;;;;;;5034596;28;20593;-45
2022/12/04 03:41:07;;;;;;;60.77;27.17;;;;;;;;;;5034106;28;20208;-45
2022/12/04 03:43:45;;;;;;;55.97;24.50;;;;;;;;;;5033950;28;20208;-43
2022/12/04 03:46:33;;;;;;;48.47;23.13;;;;;;;;;;5033590;28;20215;-43
2022/12/04 03:49:12;;;;;;;46.80;22.43;;;;;;;;;;5034928;28;20217;-45
2022/12/04 03:51:46;;;;;;;49.70;22.87;;;;;;;;;;5033777;28;20189;-44
2022/12/04 03:54:16;;;;;;;47.00;21.73;;;;;;;;;;5034336;28;20548;-45
2022/12/04 03:56:51;;;;;;;43.80;21.23;;;;;;;;;;5033468;28;20189;-44
2022/12/04 03:59:22;;;;;;;46.23;22.80;;;;;;;;;;5033660;28;20247;-44
2022/12/04 04:01:50;;;;;;;43.80;21.83;;;;;;;;;;5033605;28;20219;-44
2022/12/04 04:04:22;;;;;;;41.63;21.83;;;;;;;;;;5033455;28;20288;-43
2022/12/04 04:06:55;;;;;;;47.77;21.80;;;;;;;;;;5033754;28;20201;-43
2022/12/04 04:09:24;;;;;;;41.97;21.67;;;;;;;;;;5034213;28;20710;-43
2022/12/04 04:12:14;;;;;;;68.57;26.67;;;;;;;;;;5033380;28;20274;-43
2022/12/04 04:26:14;;;;;;;43.00;22.20;;;;;;;;;;5036985;28;20204;-43
2022/12/04 04:28:41;;;;;;;43.70;21.40;;;;;;;;;;5036684;28;20534;-45
2022/12/04 04:31:19;;;;;;;44.57;21.87;;;;;;;;;;5037767;28;20204;-43
2022/12/04 04:34:00;;;;;;;64.97;25.57;;;;;;;;;;5037127;28;20521;-43
2022/12/04 04:36:54;;;;;;;65.83;24.97;;;;;;;;;;5036594;28;20196;-45
2022/12/04 04:39:27;;;;;;;53.03;21.83;;;;;;;;;;5037775;28;20224;-45
2022/12/04 04:42:10;;;;;;;46.17;20.83;;;;;;;;;;5037813;28;20200;-43
2022/12/04 04:45:05;;;;;;;51.30;22.33;;;;;;;;;;5037483;28;20278;-45
2022/12/04 04:47:37;;;;;;;45.67;24.03;;;;;;;;;;5037025;28;20571;-43
2022/12/04 04:50:07;;;;;;;41.90;20.90;;;;;;;;;;5038086;28;20192;-43
2022/12/04 04:52:36;;;;;;;41.43;20.60;;;;;;;;;;5036441;28;20577;-43
2022/12/04 04:55:04;;;;;;;56.73;23.93;;;;;;;;;;5037419;28;20205;-43
2022/12/04 04:57:34;;;;;;;58.80;24.43;;;;;;;;;;5036339;28;20204;-43
2022/12/04 05:00:08;;;;;;;51.73;22.10;;;;;;;;;;5037247;28;20209;-43
2022/12/04 05:02:35;;;;;;;47.57;22.37;;;;;;;;;;5036486;28;20189;-44
2022/12/04 05:05:03;;;;;;;44.47;21.63;;;;;;;;;;5036820;28;20213;-44
2022/12/04 05:07:29;;;;;;;50.30;21.80;;;;;;;;;;5036216;28;20223;-44
2022/12/04 05:09:57;;;;;;;51.10;23.37;;;;;;;;;;5037086;28;20255;-45
2022/12/04 05:12:24;;;;;;;43.10;21.10;;;;;;;;;;5036748;28;20582;-44
2022/12/04 05:14:51;;;;;;;49.90;22.63;;;;;;;;;;5037319;28;20209;-43
2022/12/04 05:17:18;;;;;;;50.47;22.00;;;;;;;;;;5036897;28;20214;-43
2022/12/04 05:19:55;;;;;;;54.80;23.90;;;;;;;;;;5036769;28;20608;-44
2022/12/04 05:22:30;;;;;;;61.97;22.90;;;;;;;;;;5036850;28;20196;-43
2022/12/04 05:24:58;;;;;;;50.50;21.40;;;;;;;;;;5034876;28;20173;-43
2022/12/04 05:27:25;;;;;;;49.83;23.03;;;;;;;;;;5036918;28;20227;-43
2022/12/04 05:29:54;;;;;;;46.87;20.80;;;;;;;;;;5036540;28;20212;-43
2022/12/04 05:32:22;;;;;;;48.17;22.80;;;;;;;;;;5036653;28;20209;-43
2022/12/04 05:34:51;;;;;;;47.83;25.13;;;;;;;;;;5036635;28;20212;-43
2022/12/04 05:37:19;;;;;;;44.90;21.30;;;;;;;;;;5036258;28;20262;-43
2022/12/04 05:39:46;;;;;;;42.20;19.77;;;;;;;;;;5036408;28;20237;-43
2022/12/04 05:42:13;;;;;;;42.20;20.13;;;;;;;;;;5036247;28;20648;-43
2022/12/04 05:44:40;;;;;;;42.10;18.57;;;;;;;;;;5036699;28;20263;-43
2022/12/04 05:47:07;;;;;;;49.37;20.87;;;;;;;;;;5036485;28;20205;-43
2022/12/04 05:49:34;;;;;;;49.73;20.37;;;;;;;;;;5035048;28;20263;-44
2022/12/04 05:52:03;;;;;;;47.47;19.10;;;;;;;;;;5033989;28;20201;-44
2022/12/04 05:54:30;;;;;;;44.43;20.20;;;;;;;;;;5027286;28;20537;-43
2022/12/04 05:56:57;;;;;;;41.60;19.43;;;;;;;;;;5023744;28;20189;-43
2022/12/04 05:59:24;;;;;;;48.10;21.07;;;;;;;;;;5028733;28;20230;-45
2022/12/04 06:01:51;;;;;;;45.80;20.17;;;;;;;;;;5026337;28;20202;-44
2022/12/04 06:04:18;;;;;;;46.83;20.47;;;;;;;;;;5023493;28;20203;-43
2022/12/04 06:06:45;;;;;;;44.33;20.73;;;;;;;;;;5024553;28;20223;-44
2022/12/04 06:09:12;;;;;;;51.63;23.20;;;;;;;;;;5024246;28;20197;-44
2022/12/04 06:11:40;;;;;;;65.37;23.70;;;;;;;;;;5030800;28;20201;-44
2022/12/04 06:14:11;;;;;;;53.53;21.83;;;;;;;;;;5023477;28;20193;-44
2022/12/04 06:16:40;;;;;;;53.00;22.33;;;;;;;;;;5023154;28;20193;-43
2022/12/04 06:19:11;;;;;;;50.10;20.70;;;;;;;;;;5022418;28;20597;-45
2022/12/04 06:21:39;;;;;;;46.10;20.87;;;;;;;;;;5022963;28;20587;-45
2022/12/04 06:24:07;;;;;;;43.57;21.23;;;;;;;;;;5028829;28;20233;-45
2022/12/04 06:26:33;;;;;;;47.63;22.53;;;;;;;;;;5026244;28;20203;-44
2022/12/04 06:29:01;;;;;;;49.10;21.73;;;;;;;;;;5025210;28;20532;-43
2022/12/04 06:31:28;;;;;;;50.20;21.00;;;;;;;;;;5023683;28;20267;-44
2022/12/04 06:33:56;;;;;;;56.50;23.73;;;;;;;;;;5022705;28;20634;-43
2022/12/04 06:36:23;;;;;;;49.70;22.67;;;;;;;;;;5022568;28;20204;-44
2022/12/04 06:38:53;;;;;;;51.07;21.90;;;;;;;;;;5023493;28;20225;-42
2022/12/04 06:41:21;;;;;;;43.13;21.30;;;;;;;;;;5025437;28;20197;-44
2022/12/04 06:43:49;;;;;;;46.67;22.07;;;;;;;;;;5016944;28;20201;-42
2022/12/04 06:46:18;;;;;;;49.70;21.60;;;;;;;;;;5014980;28;20211;-43
2022/12/04 06:48:46;;;;;;;43.23;21.30;;;;;;;;;;5029053;28;20232;-45
2022/12/04 06:51:15;;;;;;;49.27;22.73;;;;;;;;;;5034149;28;20259;-43
2022/12/04 06:53:43;;;;;;;49.27;21.53;;;;;;;;;;5022135;28;20546;-44
2022/12/04 06:56:13;;;;;;;46.13;21.20;;;;;;;;;;5030711;28;20229;-43
2022/12/04 06:58:40;;;;;;;69.80;28.27;;;;;;;;;;5014534;28;20240;-43
2022/12/04 07:01:09;;;;;;;64.97;25.63;;;;;;;;;;5026294;28;20525;-43
2022/12/04 07:03:37;;;;;;;63.03;24.90;;;;;;;;;;5029433;28;20244;-43
2022/12/04 07:06:10;;;;;;;63.57;24.83;;;;;;;;;;5034151;28;20681;-45
2022/12/04 07:08:37;;;;;;;52.77;23.57;;;;;;;;;;5034300;28;20232;-44
2022/12/04 07:11:04;;;;;;;48.60;26.57;;;;;;;;;;5032445;28;20235;-44
2022/12/04 07:13:31;;;;;;;43.37;22.70;;;;;;;;;;5033737;28;20527;-44
2022/12/04 07:16:00;;;;;;;41.27;19.40;;;;;;;;;;5034589;28;20204;-44
2022/12/04 07:18:28;;;;;;;42.37;21.97;;;;;;;;;;5032295;28;20224;-43
2022/12/04 07:20:55;;;;;;;37.47;19.30;;;;;;;;;;5033946;28;20513;-43
2022/12/04 07:23:22;;;;;;;47.87;20.60;;;;;;;;;;5025646;28;20687;-45
2022/12/04 07:25:50;;;;;;;36.47;18.20;;;;;;;;;;5023184;28;20379;-42
2022/12/04 07:28:17;;;;;;;44.73;19.30;;;;;;;;;;5023472;28;20236;-43
2022/12/04 07:30:43;;;;;;;36.93;16.70;;;;;;;;;;5024184;28;20255;-43
2022/12/04 07:33:10;;;;;;;44.33;18.73;;;;;;;;;;5022502;28;20704;-43
2022/12/04 07:35:37;;;;;;;36.60;18.00;;;;;;;;;;5021774;28;20235;-45
2022/12/04 07:38:04;;;;;;;54.83;21.63;;;;;;;;;;5025726;28;20220;-42
2022/12/04 07:40:31;;;;;;;66.30;26.30;;;;;;;;;;5026926;28;20320;-45
2022/12/04 07:42:58;;;;;;;35.23;17.00;;;;;;;;;;5012883;28;20229;-46
2022/12/04 07:45:25;;;;;;;47.60;21.50;;;;;;;;;;5013619;28;20289;-42
2022/12/04 07:47:53;;;;;;;46.50;23.17;;;;;;;;;;5013762;28;20217;-46
2022/12/04 07:50:19;;;;;;;80.53;31.00;;;;;;;;;;5033397;28;20258;-43
2022/12/04 07:52:46;;;;;;;59.87;24.20;;;;;;;;;;5032620;28;20220;-45
2022/12/04 07:55:13;;;;;;;81.53;32.63;;;;;;;;;;5037049;28;20236;-43
2022/12/04 07:57:48;;;;;;;53.57;23.53;;;;;;;;;;5027485;28;20213;-42
2022/12/04 08:00:15;;;;;;;100.93;41.33;;;;;;;;;;5017301;28;20263;-43
2022/12/04 08:02:43;;;;;;;75.57;34.23;;;;;;;;;;5021122;28;20220;-45
2022/12/04 08:05:10;;;;;;;69.67;28.67;;;;;;;;;;5035033;28;20245;-46
2022/12/04 08:07:37;;;;;;;38.83;18.57;;;;;;;;;;5049558;28;20224;-48
2022/12/04 08:10:05;;;;;;;49.13;22.30;;;;;;;;;;5034725;28;20228;-47
2022/12/04 08:12:32;;;;;;;33.90;16.90;;;;;;;;;;5029375;28;20696;-50
2022/12/04 08:14:59;;;;;;;55.23;23.13;;;;;;;;;;5021457;28;20236;-50
2022/12/04 08:17:26;;;;;;;43.93;19.43;;;;;;;;;;5022871;28;20229;-48
2022/12/04 08:19:53;;;;;;;34.73;16.37;;;;;;;;;;5032459;28;20241;-52
2022/12/04 08:22:21;;;;;;;44.60;20.87;;;;;;;;;;5025289;28;20229;-50
2022/12/04 08:24:51;;;;;;;41.83;20.37;;;;;;;;;;5032899;28;20221;-48
2022/12/04 08:27:19;;;;;;;27.17;14.80;;;;;;;;;;5034831;28;20696;-50
2022/12/04 08:29:46;;;;;;;30.67;14.10;;;;;;;;;;5035962;28;20236;-47
2022/12/04 08:32:14;;;;;;;35.57;16.60;;;;;;;;;;5035960;28;20318;-47
2022/12/04 08:34:41;;;;;;;26.67;14.13;;;;;;;;;;5036000;28;20271;-47
2022/12/04 08:37:09;;;;;;;23.90;14.00;;;;;;;;;;5032694;28;20667;-49
2022/12/04 08:39:36;;;;;;;34.07;18.23;;;;;;;;;;5031070;28;20232;-48
2022/12/04 08:42:04;;;;;;;37.77;16.83;;;;;;;;;;5035793;28;20282;-48
2022/12/04 08:44:31;;;;;;;78.57;28.93;;;;;;;;;;5028671;28;20929;-51
2022/12/04 08:46:59;;;;;;;52.50;23.00;;;;;;;;;;5019679;28;20225;-46
2022/12/04 08:49:26;;;;;;;78.10;34.97;;;;;;;;;;5023788;28;20229;-46
2022/12/04 08:51:53;;;;;;;36.03;17.67;;;;;;;;;;5034413;28;20239;-50
2022/12/04 08:54:20;;;;;;;28.93;16.20;;;;;;;;;;5036249;28;20232;-50
2022/12/04 08:56:48;;;;;;;27.77;15.63;;;;;;;;;;5018156;28;20221;-46
2022/12/04 08:59:15;;;;;;;23.50;13.70;;;;;;;;;;5016460;28;20264;-47
2022/12/04 09:01:43;;;;;;;45.00;21.27;;;;;;;;;;5033616;28;20312;-46
2022/12/04 09:04:11;;;;;;;22.40;13.57;;;;;;;;;;5036284;28;20221;-45
2022/12/04 09:06:38;;;;;;;26.73;13.70;;;;;;;;;;5019698;28;20237;-47
2022/12/04 09:09:05;;;;;;;43.97;19.17;;;;;;;;;;5025298;28;20684;-47
2022/12/04 09:11:33;;;;;;;32.83;15.50;;;;;;;;;;5027588;28;20228;-49
2022/12/04 09:14:02;;;;;;;32.33;14.73;;;;;;;;;;5029771;28;20231;-46
2022/12/04 09:16:30;;;;;;;20.37;11.93;;;;;;;;;;5001797;28;20243;-46
2022/12/04 09:18:58;;;;;;;23.67;12.77;;;;;;;;;;5036024;28;20233;-46
2022/12/04 09:21:25;;;;;;;32.70;18.43;;;;;;;;;;5035483;28;20239;-45
2022/12/04 09:23:52;;;;;;;22.00;12.50;;;;;;;;;;5028579;28;20236;-47
2022/12/04 09:26:24;;;;;;;23.83;13.67;;;;;;;;;;5025175;28;20224;-45
2022/12/04 09:28:52;;;;;;;24.10;13.43;;;;;;;;;;5035463;28;20229;-46
2022/12/04 09:31:20;;;;;;;24.13;14.13;;;;;;;;;;5035368;28;20228;-47
2022/12/04 09:33:48;;;;;;;42.63;16.67;;;;;;;;;;5035269;28;20229;-45
2022/12/04 09:36:15;;;;;;;33.57;15.77;;;;;;;;;;5035375;28;20232;-53
2022/12/04 09:38:43;;;;;;;36.13;18.23;;;;;;;;;;5025449;28;20233;-45
2022/12/04 09:41:20;;;;;;;33.10;16.80;;;;;;;;;;5026115;28;20232;-45
2022/12/04 09:44:17;;;;;;;29.47;14.90;;;;;;;;;;5035520;28;20244;-46
2022/12/04 09:46:58;;;;;;;28.90;15.23;;;;;;;;;;5033971;28;20225;-51
2022/12/04 09:49:34;;;;;;;29.83;15.27;;;;;;;;;;5035520;28;20315;-45
2022/12/04 09:52:08;;;;;;;28.33;15.17;;;;;;;;;;5034820;28;20235;-46
2022/12/04 09:54:39;;;;;;;26.33;14.77;;;;;;;;;;5034580;28;20220;-49
2022/12/04 09:57:15;;;;;;;24.20;13.70;;;;;;;;;;5034141;28;20232;-46
2022/12/04 09:59:42;;;;;;;33.33;17.27;;;;;;;;;;5035178;28;20242;-45
2022/12/04 10:02:28;;;;;;;51.40;20.97;;;;;;;;;;5032923;28;20217;-46
2022/12/04 10:04:57;;;;;;;36.53;17.77;;;;;;;;;;5014857;28;20257;-45
2022/12/04 10:07:39;;;;;;;34.10;17.17;;;;;;;;;;5033144;28;20286;-46
2022/12/04 10:10:16;;;;;;;28.07;14.63;;;;;;;;;;5030147;28;20312;-48
2022/12/04 10:12:57;;;;;;;73.20;35.80;;;;;;;;;;5014695;28;20299;-47
2022/12/04 10:15:37;;;;;;;27.10;15.63;;;;;;;;;;5014802;28;20283;-45
2022/12/04 10:18:22;;;;;;;25.50;14.63;;;;;;;;;;5014000;28;20225;-46
2022/12/04 10:21:01;;;;;;;28.90;13.63;;;;;;;;;;5014165;28;20347;-47
2022/12/04 10:23:44;;;;;;;24.40;14.83;;;;;;;;;;5026996;28;20242;-45
2022/12/04 10:26:18;;;;;;;238.10;104.10;;;;;;;;;;5038441;28;20225;-46
2022/12/04 10:28:58;;;;;;;323.93;138.50;;;;;;;;;;5013699;28;20570;-48
2022/12/04 10:31:27;;;;;;;91.77;44.40;;;;;;;;;;5023715;28;20300;-48
2022/12/04 10:34:22;;;;;;;54.67;26.47;;;;;;;;;;5034509;28;20235;-46
2022/12/04 10:36:53;;;;;;;38.70;19.10;;;;;;;;;;5027890;28;20220;-48
2022/12/04 10:39:35;;;;;;;27.53;15.93;;;;;;;;;;5034594;28;20224;-48
2022/12/04 10:42:09;;;;;;;30.20;15.93;;;;;;;;;;5034481;28;20248;-45
2022/12/04 10:44:37;;;;;;;25.13;13.17;;;;;;;;;;5033368;28;20223;-47
2022/12/04 10:47:05;;;;;;;27.37;14.77;;;;;;;;;;5032738;28;20232;-44
2022/12/04 10:49:34;;;;;;;46.90;18.93;;;;;;;;;;5034364;28;20255;-48
2022/12/04 10:52:02;;;;;;;135.53;51.63;;;;;;;;;;5034162;28;20228;-45
2022/12/04 10:54:48;;;;;;;59.60;26.17;;;;;;;;;;5033578;28;20229;-45
2022/12/04 10:57:16;;;;;;;101.43;40.13;;;;;;;;;;5018756;28;20213;-48
2022/12/04 10:59:49;;;;;;;73.57;31.90;;;;;;;;;;5014383;28;20229;-44
2022/12/04 11:02:25;;;;;;;67.27;26.47;;;;;;;;;;5024739;28;20283;-43
2022/12/04 11:04:59;;;;;;;49.00;20.37;;;;;;;;;;5012789;28;20609;-47
2022/12/04 11:07:29;;;;;;;37.23;18.37;;;;;;;;;;5013034;28;20217;-43
2022/12/04 11:10:02;;;;;;;80.13;30.00;;;;;;;;;;5013769;28;20221;-44
2022/12/04 11:12:29;;;;;;;80.87;28.53;;;;;;;;;;5013820;28;20225;-45
2022/12/04 11:15:05;;;;;;;99.20;33.67;;;;;;;;;;5025100;28;20766;-44
2022/12/04 11:17:32;;;;;;;61.90;26.77;;;;;;;;;;5016883;28;20263;-44
2022/12/04 11:20:06;;;;;;;31.87;16.70;;;;;;;;;;5014012;28;20232;-45
2022/12/04 11:22:34;;;;;;;47.93;21.90;;;;;;;;;;5023252;28;20280;-45
2022/12/04 11:25:01;;;;;;;37.67;17.67;;;;;;;;;;5017847;28;20268;-44
2022/12/04 11:27:31;;;;;;;59.10;28.63;;;;;;;;;;5017587;28;20705;-44
2022/12/04 11:30:09;;;;;;;28.07;14.77;;;;;;;;;;5017456;28;20608;-45
2022/12/04 11:32:37;;;;;;;24.57;14.40;;;;;;;;;;5038889;28;20220;-43
2022/12/04 11:35:12;;;;;;;25.53;14.27;;;;;;;;;;5057635;28;20223;-43
2022/12/04 11:37:39;;;;;;;35.63;17.50;;;;;;;;;;5035362;28;20571;-45
2022/12/04 11:40:17;;;;;;;33.67;17.13;;;;;;;;;;5032936;28;20228;-45
2022/12/04 11:42:57;;;;;;;26.03;14.03;;;;;;;;;;5037018;28;20733;-45
2022/12/04 11:45:24;;;;;;;31.20;15.57;;;;;;;;;;5037324;28;20262;-49
2022/12/04 11:48:00;;;;;;;24.13;13.33;;;;;;;;;;5037323;28;20242;-45
2022/12/04 11:50:50;;;;;;;23.00;13.07;;;;;;;;;;5035473;28;20220;-45
2022/12/04 11:53:36;;;;;;;22.30;13.23;;;;;;;;;;5035788;28;20724;-45
2022/12/04 11:56:15;;;;;;;25.50;12.40;;;;;;;;;;5032628;28;20221;-44
2022/12/04 11:59:21;;;;;;;27.93;13.37;;;;;;;;;;5037432;28;20236;-43
2022/12/04 12:01:53;;;;;;;42.47;17.23;;;;;;;;;;5015741;28;20291;-45
2022/12/04 12:04:39;;;;;;;31.30;15.27;;;;;;;;;;5017894;28;20225;-46
2022/12/04 12:07:12;;;;;;;26.27;13.93;;;;;;;;;;5016889;28;20510;-44
2022/12/04 12:10:09;;;;;;;36.33;17.37;;;;;;;;;;5035025;28;20312;-45
2022/12/04 12:12:55;;;;;;;37.33;21.00;;;;;;;;;;5021216;28;20698;-47
2022/12/04 12:15:59;;;;;;;24.87;13.20;;;;;;;;;;5017175;28;20252;-45
2022/12/04 12:18:55;;;;;;;27.97;12.90;;;;;;;;;;5017709;28;20237;-46
2022/12/04 12:21:32;;;;;;;23.97;12.83;;;;;;;;;;5020285;28;20243;-44
2022/12/04 12:24:29;;;;;;;28.20;13.47;;;;;;;;;;5037116;28;20693;-45
2022/12/04 12:27:17;;;;;;;24.10;12.47;;;;;;;;;;4981587;28;20226;-47
2022/12/04 12:30:07;;;;;;;47.03;19.20;;;;;;;;;;5019982;28;20229;-47
2022/12/04 12:33:00;;;;;;;33.03;15.53;;;;;;;;;;5023914;28;20222;-45
2022/12/04 12:35:38;;;;;;;26.03;13.53;;;;;;;;;;5025488;28;20600;-45
2022/12/04 12:38:17;;;;;;;26.93;13.90;;;;;;;;;;5026695;28;20240;-45
2022/12/04 12:41:25;;;;;;;32.17;17.73;;;;;;;;;;5024702;28;20285;-45
2022/12/04 12:44:19;;;;;;;22.17;12.43;;;;;;;;;;4974132;28;20222;-46
2022/12/04 12:46:50;;;;;;;22.30;13.17;;;;;;;;;;4957621;28;20245;-46
2022/12/04 12:49:30;;;;;;;20.37;12.50;;;;;;;;;;4966285;28;20246;-47
2022/12/04 12:52:11;;;;;;;21.87;13.23;;;;;;;;;;4967103;28;20274;-45
2022/12/04 12:54:38;;;;;;;39.60;16.87;;;;;;;;;;4956763;28;20221;-47
2022/12/04 12:57:19;;;;;;;29.07;14.20;;;;;;;;;;4972586;28;20230;-45
2022/12/04 12:59:56;;;;;;;27.50;14.13;;;;;;;;;;4974559;28;20241;-44
2022/12/04 13:02:28;;;;;;;29.93;14.67;;;;;;;;;;4973955;28;20222;-48
2022/12/04 13:04:59;;;;;;;23.70;14.53;;;;;;;;;;4974327;28;20304;-47
2022/12/04 13:07:32;;;;;;;23.10;12.73;;;;;;;;;;4974467;28;20288;-48
2022/12/04 13:10:02;;;;;;;22.17;12.70;;;;;;;;;;4955571;29;20241;-43
2022/12/04 13:12:37;;;;;;;22.93;13.27;;;;;;;;;;4964858;28;20227;-46
2022/12/04 13:15:04;;;;;;;29.30;14.47;;;;;;;;;;4974683;28;20703;-45
2022/12/04 13:17:34;;;;;;;30.07;14.37;;;;;;;;;;4973971;28;20234;-46
2022/12/04 13:20:04;;;;;;;24.50;13.10;;;;;;;;;;4977438;28;20293;-47
2022/12/04 13:22:59;;;;;;;24.93;12.87;;;;;;;;;;5024149;28;20287;-48
2022/12/04 13:25:39;;;;;;;20.50;11.60;;;;;;;;;;5014538;28;20245;-46
2022/12/04 13:28:24;;;;;;;20.37;11.63;;;;;;;;;;5028359;28;20216;-46
2022/12/04 13:31:19;;;;;;;20.10;11.03;;;;;;;;;;5034656;28;20244;-46
2022/12/04 13:33:56;;;;;;;15.40;9.90;;;;;;;;;;5033932;28;20228;-46
2022/12/04 13:36:49;;;;;;;16.83;10.57;;;;;;;;;;5034256;28;20232;-46
2022/12/04 13:39:45;;;;;;;20.97;11.83;;;;;;;;;;5027458;28;20231;-45
2022/12/04 13:42:24;;;;;;;27.07;12.57;;;;;;;;;;5028261;28;20287;-46
2022/12/04 13:44:53;;;;;;;28.00;13.20;;;;;;;;;;5014966;28;20238;-42
2022/12/04 13:47:27;;;;;;;26.00;12.17;;;;;;;;;;5014923;28;20229;-42
2022/12/04 13:50:17;;;;;;;23.60;13.33;;;;;;;;;;5023726;28;20849;-42
2022/12/04 13:52:46;;;;;;;26.63;13.43;;;;;;;;;;5024528;28;20308;-42
2022/12/04 13:55:27;;;;;;;21.27;12.40;;;;;;;;;;5023453;28;20223;-42
2022/12/04 13:58:19;;;;;;;21.27;11.47;;;;;;;;;;5022741;28;20735;-42
2022/12/04 14:00:47;;;;;;;22.37;11.23;;;;;;;;;;5024653;28;20236;-41
2022/12/04 14:03:27;;;;;;;21.03;11.77;;;;;;;;;;5023007;28;20339;-43
2022/12/04 14:05:54;;;;;;;27.73;13.77;;;;;;;;;;5035213;28;20228;-41
2022/12/04 14:08:27;;;;;;;25.37;12.03;;;;;;;;;;5024693;28;20255;-41
2022/12/04 14:10:57;;;;;;;18.33;10.60;;;;;;;;;;5014439;28;20232;-42
2022/12/04 14:13:28;;;;;;;17.83;9.60;;;;;;;;;;5027150;28;20212;-41
2022/12/04 14:16:03;;;;;;;17.33;10.40;;;;;;;;;;5034209;28;20216;-42
2022/12/04 14:18:30;;;;;;;15.37;10.60;;;;;;;;;;5034414;28;20220;-43
2022/12/04 14:21:03;;;;;;;18.23;10.93;;;;;;;;;;5034058;28;20303;-41
2022/12/04 14:23:39;;;;;;;15.93;10.13;;;;;;;;;;5033966;28;20244;-44
2022/12/04 14:26:21;;;;;;;15.60;9.87;;;;;;;;;;5034167;28;20216;-41
2022/12/04 14:28:49;;;;;;;23.97;13.63;;;;;;;;;;5034527;28;20232;-41
2022/12/04 14:31:16;;;;;;;46.63;19.17;;;;;;;;;;5035043;28;20228;-42
2022/12/04 14:33:47;;;;;;;43.37;20.37;;;;;;;;;;5034150;28;20252;-41
2022/12/04 14:36:24;;;;;;;158.30;69.23;;;;;;;;;;5032969;28;20561;-41
2022/12/04 14:38:59;;;;;;;160.87;76.47;;;;;;;;;;5023314;28;20239;-40
2022/12/04 14:41:27;;;;;;;74.37;39.53;;;;;;;;;;5014051;28;20233;-41
2022/12/04 14:43:55;;;;;;;26.47;15.17;;;;;;;;;;5014557;28;20240;-42
2022/12/04 14:46:38;;;;;;;64.00;32.17;;;;;;;;;;5014294;28;20225;-42
2022/12/04 14:49:34;;;;;;;40.77;21.77;;;;;;;;;;5014235;28;20233;-43
2022/12/04 14:52:10;;;;;;;86.70;42.20;;;;;;;;;;5014960;28;20677;-42
2022/12/04 14:55:05;;;;;;;45.27;25.23;;;;;;;;;;5013944;28;20283;-42
2022/12/04 15:00:53;;;;;;;30.73;15.57;;;;;;;;;;4973670;28;20261;-44
2022/12/04 15:03:20;;;;;;;28.97;15.73;;;;;;;;;;4973479;28;20246;-43